Tropical Cyclones
[Index]
Main Index Home Page Stock Weather Photos Extreme Storms Discussion Storm News and Storm Chasing Reports Tropical Cyclones / Hurricanes / Typhoons Weather Data and Links Wild Fires / Bushfires Weather Observation Techniques Weather Picture Catalogue Tornado Pictures and Reports Stock Video Footage and DVDs for sale
Season 1988-1989 Tropical Cyclone LILI Track Map
Season 1988-1989 Summaries: [BoM-AU] [JTWC-AU] [JTWC-SIO] [JTWC-SPAC] [JTWC-SH]
<<- Previous TC | JTWC 1988-1989 Season | Next TC ->>

click for intensity scale information  Lat/long Grid: Show Hide

 Date Labels: Show Hide

Joint Typhoon Warning Centre Cyclone Data

Name: LILI

06 Apr 1989 00:00 UTC to 13 Apr 1989 06:00 UTC

    date/time    lat    long     hPa   cat  kts
1989-04-06 00   13.2   159.1                  25          
1989-04-06 06   12.9   159.8                  25          
1989-04-06 12   12.5   160.4                  25          
1989-04-06 18   12.0   161.2                  25          
1989-04-07 00   12.1   162.2                  30          
1989-04-07 06   12.5   163.2                  35          
1989-04-07 12   13.1   163.9            1     40          
1989-04-07 18   13.5   164.3            1     45          
1989-04-08 00   13.8   164.5            2     60          
1989-04-08 06   14.1   164.6            2     70          
1989-04-08 12   14.4   164.7            3     80          
1989-04-08 18   14.9   164.7            3     90          
1989-04-09 00   15.6   164.6            3     95          
1989-04-09 06   16.4   164.6            4    100          
1989-04-09 12   17.1   164.6            4    105          
1989-04-09 18   18.0   164.8            4    110          
1989-04-10 00   19.0   165.0            4    100          
1989-04-10 06   20.0   165.6            3     90          
1989-04-10 12   21.1   166.2            2     70          
1989-04-10 18   22.2   166.7            1     50          
1989-04-11 00   23.1   167.1                  35          
1989-04-11 06   23.8   167.7                  30          
1989-04-11 12   24.1   168.5                  25          
1989-04-11 18   24.6   168.9                  25          
1989-04-12 00   25.0   168.5                  25          
1989-04-12 06   25.0   167.8                  25          
1989-04-12 12   25.0   166.7                  20          
1989-04-12 18   25.0   165.8                  20          
1989-04-13 00   25.2   164.7                  20          
1989-04-13 06   25.8   163.7                  20          
Winds are 1-min average.

Tropical cyclone tracks developed by Michael Bath using data from the Joint Typhoon Warning Centre Best Tracks and Google Maps.


[Australian Severe Weather index] [Copyright Notice] [Email Contacts] [Search This Site] [Privacy Policy]
Document: tropical_cyclone_lili.htm Updated: 18 September 2016